createdAt,value
2024-04-22T00:00:24.413Z,100987.31
2024-04-22T00:02:51.642Z,101008.47
2024-04-22T00:05:18.828Z,101005.88
2024-04-22T00:07:46.092Z,101000.59
2024-04-22T00:10:13.445Z,101006.75
2024-04-22T00:12:40.619Z,100999.72
2024-04-22T00:15:08.247Z,101000.59
2024-04-22T00:17:35.516Z,100997.03
2024-04-22T00:20:03.624Z,101010.28
2024-04-22T00:22:30.899Z,101002.38
2024-04-22T00:24:59.189Z,101004.16
2024-04-22T00:27:26.550Z,101005.91
2024-04-22T00:29:53.699Z,101007.69
2024-04-22T00:32:21.275Z,101008.56
2024-04-22T00:34:48.567Z,101006.81
2024-04-22T00:37:15.722Z,101012.19
2024-04-22T00:39:42.941Z,101008.69
2024-04-22T00:42:10.193Z,101005.19
2024-04-22T00:44:37.503Z,100999.88
2024-04-22T00:47:04.809Z,101006.94
2024-04-22T00:49:32.183Z,101001.69
2024-04-22T00:51:59.469Z,101005.19
2024-04-22T00:54:26.888Z,101003.53
2024-04-22T00:56:54.136Z,101004.41
2024-04-22T00:59:21.458Z,101015.81
2024-04-22T01:01:48.851Z,101008.00
2024-04-22T01:04:16.613Z,101011.56
2024-04-22T01:06:43.837Z,100998.41
2024-04-22T01:09:11.014Z,100994.03
2024-04-22T01:11:38.351Z,101014.25
2024-04-22T01:14:05.816Z,101009.88
2024-04-22T01:16:33.012Z,101009.88
2024-04-22T01:19:00.201Z,101013.47
2024-04-22T01:21:30.290Z,101011.69
2024-04-22T01:23:58.727Z,101003.81
2024-04-22T01:26:26.514Z,101005.59
2024-04-22T01:28:53.763Z,101008.38
2024-04-22T01:31:20.962Z,101009.25
2024-04-22T01:33:48.129Z,100998.66
2024-04-22T01:36:15.268Z,101006.69
2024-04-22T01:38:42.402Z,101009.34
2024-04-22T01:41:09.518Z,101008.47
2024-04-22T01:43:37.242Z,100995.28
2024-04-22T01:46:05.499Z,100998.00
2024-04-22T01:48:33.395Z,101000.66
2024-04-22T01:51:00.656Z,100998.06
2024-04-22T01:53:27.861Z,100999.78
2024-04-22T01:55:58.106Z,100997.13
2024-04-22T01:58:25.926Z,100992.78
2024-04-22T02:00:53.541Z,100998.03
2024-04-22T02:03:20.834Z,100989.31
2024-04-22T02:05:48.043Z,100990.25
2024-04-22T02:08:15.297Z,100996.41
2024-04-22T02:10:42.608Z,100999.06
2024-04-22T02:13:09.906Z,101007.91
2024-04-22T02:15:37.226Z,100993.00
2024-04-22T02:18:04.527Z,101007.94
2024-04-22T02:20:31.744Z,100994.72
2024-04-22T02:22:58.877Z,101002.69
2024-04-22T02:25:25.984Z,101000.97
2024-04-22T02:27:54.659Z,101000.94
2024-04-22T02:30:24.841Z,100990.47
2024-04-22T02:32:52.079Z,101005.44
2024-04-22T02:35:19.456Z,101006.38
2024-04-22T02:37:46.638Z,101007.22
2024-04-22T02:40:14.083Z,101006.34
2024-04-22T02:42:47.086Z,100997.59
2024-04-22T02:45:14.496Z,101004.69
2024-04-22T02:47:41.810Z,100999.44
2024-04-22T02:50:09.072Z,100997.63
2024-04-22T02:52:36.216Z,100997.59
2024-04-22T02:55:03.348Z,100990.63
2024-04-22T02:57:30.484Z,100995.84
2024-04-22T02:59:57.582Z,100985.31
2024-04-22T03:02:24.849Z,100998.47
2024-04-22T03:04:52.187Z,100989.66
2024-04-22T03:07:19.454Z,100981.78
2024-04-22T03:09:46.745Z,100987.97
2024-04-22T03:12:14.593Z,100990.66
2024-04-22T03:14:42.100Z,100990.66
2024-04-22T03:17:09.431Z,100998.63
2024-04-22T03:19:36.746Z,100989.78
2024-04-22T03:22:04.303Z,100991.59
2024-04-22T03:24:31.581Z,100984.59
2024-04-22T03:26:58.782Z,100996.03
2024-04-22T03:29:25.920Z,100977.63
2024-04-22T03:31:53.221Z,100973.28
2024-04-22T03:34:20.453Z,100988.19
2024-04-22T03:36:47.717Z,100988.28
2024-04-22T03:39:14.929Z,100990.09
2024-04-22T03:41:42.105Z,100994.63
2024-04-22T03:44:10.529Z,100971.91
2024-04-22T03:46:56.596Z,100986.94
2024-04-22T03:49:42.895Z,100988.84
2024-04-22T03:52:13.084Z,100989.91
2024-04-22T03:54:40.226Z,100986.41
2024-04-22T03:57:07.390Z,100989.13
2024-04-22T03:59:34.621Z,100994.50
2024-04-22T04:02:01.755Z,100991.00
2024-04-22T04:04:29.075Z,100990.13
2024-04-22T04:06:56.316Z,100992.84
2024-04-22T04:09:26.188Z,100985.81
2024-04-22T04:11:53.932Z,100990.25
2024-04-22T04:14:21.175Z,100979.78
2024-04-22T04:16:48.463Z,100981.59
2024-04-22T04:19:15.677Z,100980.78
2024-04-22T04:21:43.024Z,100989.56
2024-04-22T04:24:10.198Z,100986.94
2024-04-22T04:26:37.387Z,100991.44
2024-04-22T04:29:13.670Z,100989.69
2024-04-22T04:31:46.563Z,100982.72
2024-04-22T04:34:15.611Z,100987.97
2024-04-22T04:36:42.851Z,100992.38
2024-04-22T04:39:10.587Z,100999.47
2024-04-22T04:41:37.769Z,100999.50
2024-04-22T04:44:05.199Z,100999.53
2024-04-22T04:46:32.413Z,100995.19
2024-04-22T04:48:59.635Z,101001.41
2024-04-22T04:51:26.781Z,100997.97
2024-04-22T04:53:53.914Z,100997.06
2024-04-22T04:56:21.926Z,100989.22
2024-04-22T04:58:50.016Z,100998.00
2024-04-22T05:01:20.032Z,101000.63
2024-04-22T05:03:47.639Z,101004.13
2024-04-22T05:06:14.980Z,101012.09
2024-04-22T05:08:42.155Z,101017.34
2024-04-22T05:11:09.378Z,101018.22
2024-04-22T05:13:36.604Z,101021.75
2024-04-22T05:16:03.981Z,101028.72
2024-04-22T05:18:31.183Z,101023.50
2024-04-22T05:20:58.359Z,101034.94
2024-04-22T05:23:25.494Z,101040.28
2024-04-22T05:25:52.715Z,101031.47
2024-04-22T05:28:20.158Z,101039.44
2024-04-22T05:30:47.321Z,101036.78
2024-04-22T05:33:35.803Z,101025.41
2024-04-22T05:36:16.350Z,101039.50
2024-04-22T05:38:46.620Z,101038.72
2024-04-22T05:41:13.951Z,101040.50
2024-04-22T05:43:41.290Z,101043.13
2024-04-22T05:46:09.958Z,101039.63
2024-04-22T05:48:37.491Z,101045.81
2024-04-22T05:51:04.931Z,101046.63
2024-04-22T05:53:32.099Z,101040.47
2024-04-22T05:55:59.256Z,101045.75
2024-04-22T05:58:26.483Z,101034.28
2024-04-22T06:00:53.768Z,101033.41
2024-04-22T06:03:21.103Z,101036.06
2024-04-22T06:05:48.254Z,101051.00
2024-04-22T06:08:15.480Z,101041.28
2024-04-22T06:10:42.761Z,101050.09
2024-04-22T06:13:10.007Z,101039.50
2024-04-22T06:15:37.193Z,101040.34
2024-04-22T06:18:04.559Z,101049.97
2024-04-22T06:20:31.747Z,101044.63
2024-04-22T06:22:58.982Z,101055.09
2024-04-22T06:25:26.751Z,101053.28
2024-04-22T06:27:53.956Z,101048.84
2024-04-22T06:30:21.126Z,101047.84
2024-04-22T06:32:48.737Z,101035.50
2024-04-22T06:35:16.145Z,101045.97
2024-04-22T06:37:43.442Z,101041.47
2024-04-22T06:40:11.061Z,101047.53
2024-04-22T06:42:38.309Z,101047.47
2024-04-22T06:45:05.770Z,101037.72
2024-04-22T06:47:33.185Z,101047.34
2024-04-22T06:50:00.651Z,101045.56
2024-04-22T06:52:27.937Z,101048.09
2024-04-22T06:54:55.115Z,101037.44
2024-04-22T06:57:22.379Z,101036.47
2024-04-22T06:59:49.711Z,101036.31
2024-04-22T07:02:20.251Z,101030.06
2024-04-22T07:04:50.922Z,101045.78
2024-04-22T07:07:18.218Z,101040.41
2024-04-22T07:09:45.391Z,101036.00
2024-04-22T07:12:12.578Z,101030.63
2024-04-22T07:14:39.842Z,101029.53
2024-04-22T07:17:07.586Z,101032.09
2024-04-22T07:19:34.832Z,101034.59
2024-04-22T07:22:02.685Z,101035.41
2024-04-22T07:24:30.071Z,101023.81
2024-04-22T07:26:58.074Z,101026.25
2024-04-22T07:29:25.713Z,101026.25
2024-04-22T07:31:53.357Z,101029.63
2024-04-22T07:34:20.980Z,101025.91
2024-04-22T07:36:53.191Z,101032.88
2024-04-22T07:39:26.314Z,101030.97
2024-04-22T07:41:53.496Z,101022.91
2024-04-22T07:44:20.716Z,101030.75
2024-04-22T07:46:48.033Z,101029.72
2024-04-22T07:49:15.330Z,101023.44
2024-04-22T07:51:42.536Z,101027.72
2024-04-22T07:54:10.303Z,101022.25
2024-04-22T07:56:37.953Z,101015.97
2024-04-22T07:59:06.459Z,101023.81
2024-04-22T08:01:34.264Z,101017.56
2024-04-22T08:04:02.174Z,101022.78
2024-04-22T08:06:38.839Z,101027.03
2024-04-22T08:09:06.505Z,101015.63
2024-04-22T08:11:33.945Z,101024.44
2024-04-22T08:14:01.291Z,101020.72
2024-04-22T08:16:28.505Z,101006.53
2024-04-22T08:18:58.231Z,101017.94
2024-04-22T08:21:25.498Z,101015.13
2024-04-22T08:23:52.625Z,101015.94
2024-04-22T08:26:19.802Z,101021.94
2024-04-22T08:28:47.073Z,101015.69
2024-04-22T08:31:14.386Z,101003.19
2024-04-22T08:33:41.681Z,101006.44
2024-04-22T08:36:09.180Z,101013.28
2024-04-22T08:38:36.611Z,101007.75
2024-04-22T08:41:04.007Z,101008.34
2024-04-22T08:43:31.477Z,101004.53
2024-04-22T08:45:59.112Z,101014.03
2024-04-22T08:48:26.385Z,101011.25
2024-04-22T08:50:58.604Z,101014.47
2024-04-22T08:53:26.170Z,101005.44
2024-04-22T08:55:53.892Z,101002.59
2024-04-22T08:58:21.182Z,101009.47
2024-04-22T09:00:48.366Z,101009.22
2024-04-22T09:03:15.725Z,101007.28
2024-04-22T09:05:43.192Z,100991.38
2024-04-22T09:08:11.097Z,100987.56
2024-04-22T09:11:06.453Z,100984.03
2024-04-22T09:13:26.105Z,100995.47
2024-04-22T09:15:59.789Z,100989.09
2024-04-22T09:18:29.798Z,100978.56
2024-04-22T09:21:08.949Z,100981.91
2024-04-22T09:23:38.128Z,100985.59
2024-04-22T09:26:07.232Z,100993.38
2024-04-22T09:28:39.437Z,100994.19
2024-04-22T09:31:10.232Z,100979.94
2024-04-22T09:33:38.408Z,100978.00
2024-04-22T09:36:07.361Z,100976.84
2024-04-22T09:38:44.115Z,100972.34
2024-04-22T09:41:15.512Z,100969.53
2024-04-22T09:43:49.870Z,100968.03
2024-04-22T09:46:21.012Z,100979.16
2024-04-22T09:48:49.735Z,100979.63
2024-04-22T09:51:19.469Z,100962.47
2024-04-22T09:53:47.314Z,100968.50
2024-04-22T09:56:28.743Z,100967.13
2024-04-22T09:58:57.175Z,100972.09
2024-04-22T10:01:24.982Z,100961.28
2024-04-22T10:03:53.063Z,100975.13
2024-04-22T10:06:24.628Z,100966.84
2024-04-22T10:08:55.730Z,100962.28
2024-04-22T10:11:26.836Z,100984.28
2024-04-22T10:13:54.855Z,100979.78
2024-04-22T10:16:22.260Z,100979.09
2024-04-22T10:18:50.274Z,100989.22
2024-04-22T10:21:23.318Z,100976.25
2024-04-22T10:23:50.491Z,100981.72
2024-04-22T10:26:19.463Z,100975.84
2024-04-22T10:28:47.634Z,100969.09
2024-04-22T10:31:23.572Z,100984.38
2024-04-22T10:33:51.404Z,100973.47
2024-04-22T10:36:19.348Z,100964.16
2024-04-22T10:38:49.465Z,100973.41
2024-04-22T10:41:16.898Z,100960.50
2024-04-22T10:43:46.556Z,100974.63
2024-04-22T10:46:14.157Z,100962.38
2024-04-22T10:48:41.905Z,100965.63
2024-04-22T10:51:12.076Z,100959.22
2024-04-22T10:53:39.269Z,100951.34
2024-04-22T10:56:09.440Z,100947.47
2024-04-22T10:58:36.824Z,100950.09
2024-04-22T11:01:04.802Z,100951.75
2024-04-22T11:03:32.620Z,100941.78
2024-04-22T11:06:06.858Z,100937.03
2024-04-22T11:08:34.549Z,100939.47
2024-04-22T11:11:02.563Z,100940.75
2024-04-22T11:13:30.023Z,100942.22
2024-04-22T11:16:07.426Z,100945.09
2024-04-22T11:18:35.058Z,100947.44
2024-04-22T11:21:02.825Z,100938.06
2024-04-22T11:23:30.169Z,100948.28
2024-04-22T11:25:57.699Z,100956.03
2024-04-22T11:28:25.950Z,100952.19
2024-04-22T11:30:53.193Z,100961.00
2024-04-22T11:33:22.037Z,100967.19
2024-04-22T11:35:52.376Z,100958.22
2024-04-22T11:38:19.673Z,100956.41
2024-04-22T11:40:48.898Z,100958.25
2024-04-22T11:43:16.402Z,100939.13
2024-04-22T11:45:43.668Z,100938.28
2024-04-22T11:48:11.055Z,100938.69
2024-04-22T11:50:40.628Z,100939.69
2024-04-22T11:53:14.935Z,100933.66
2024-04-22T11:55:49.060Z,100929.50
2024-04-22T11:58:16.325Z,100927.06
2024-04-22T12:00:43.895Z,100924.66
2024-04-22T12:03:11.141Z,100923.09
2024-04-22T12:05:38.528Z,100915.47
2024-04-22T12:08:06.512Z,100915.41
2024-04-22T12:10:33.830Z,100918.00
2024-04-22T12:13:01.043Z,100921.38
2024-04-22T12:15:28.268Z,100912.34
2024-04-22T12:17:55.459Z,100904.25
2024-04-22T12:20:22.817Z,100897.91
2024-04-22T12:22:50.313Z,100896.16
2024-04-22T12:25:17.766Z,100884.69
2024-04-22T12:27:44.919Z,100890.78
2024-04-22T12:30:12.304Z,100889.00
2024-04-22T12:32:39.961Z,100896.06
2024-04-22T12:35:07.381Z,100884.38
2024-04-22T12:37:35.554Z,100876.34
2024-04-22T12:40:02.852Z,100876.34
2024-04-22T12:42:30.054Z,100872.63
2024-04-22T12:44:57.237Z,100872.50
2024-04-22T12:47:42.985Z,100861.56
2024-04-22T12:50:38.945Z,100834.81
2024-04-22T12:53:06.256Z,100854.50
2024-04-22T12:55:34.099Z,100845.31
2024-04-22T12:58:01.888Z,100844.97
2024-04-22T13:00:29.816Z,100846.53
2024-04-22T13:02:57.940Z,100842.38
2024-04-22T13:05:28.694Z,100848.41
2024-04-22T13:08:00.382Z,100851.19
2024-04-22T13:10:27.821Z,100854.88
2024-04-22T13:12:55.182Z,100847.09
2024-04-22T13:15:22.419Z,100828.44
2024-04-22T13:17:49.740Z,100839.13
2024-04-22T13:20:17.134Z,100838.22
2024-04-22T13:22:44.492Z,100837.28
2024-04-22T13:25:11.822Z,100838.00
2024-04-22T13:27:39.051Z,100827.19
2024-04-22T13:30:10.385Z,100834.25
2024-04-22T13:32:38.631Z,100831.41
2024-04-22T13:35:06.877Z,100827.44
2024-04-22T13:37:34.952Z,100830.66
2024-04-22T13:40:02.256Z,100843.16
2024-04-22T13:42:33.099Z,100844.78
2024-04-22T13:45:03.546Z,100834.25
2024-04-22T13:47:30.810Z,100844.03
2024-04-22T13:50:01.255Z,100852.06
2024-04-22T13:52:28.616Z,100838.81
2024-04-22T13:54:55.949Z,100831.44
2024-04-22T13:57:23.216Z,100831.16
2024-04-22T13:59:50.451Z,100840.88
2024-04-22T14:02:17.765Z,100829.94
2024-04-22T14:04:45.085Z,100834.84
2024-04-22T14:07:15.843Z,100843.34
2024-04-22T14:09:43.489Z,100827.31
2024-04-22T14:12:10.724Z,100838.56
2024-04-22T14:14:37.879Z,100832.00
2024-04-22T14:17:08.219Z,100826.44
2024-04-22T14:19:36.314Z,100835.19
2024-04-22T14:22:04.010Z,100830.75
2024-04-22T14:24:31.195Z,100828.16
2024-04-22T14:27:01.092Z,100832.84
2024-04-22T14:29:28.944Z,100822.41
2024-04-22T14:31:59.623Z,100813.03
2024-04-22T14:34:26.849Z,100820.41
2024-04-22T14:36:54.054Z,100817.75
2024-04-22T14:39:21.212Z,100816.19
2024-04-22T14:41:48.647Z,100811.97
2024-04-22T14:44:16.268Z,100812.94
2024-04-22T14:46:43.534Z,100801.59
2024-04-22T14:49:10.751Z,100802.72
2024-04-22T14:51:37.940Z,100791.22
2024-04-22T14:54:05.214Z,100797.34
2024-04-22T14:56:32.501Z,100789.41
2024-04-22T14:59:00.900Z,100784.25
2024-04-22T15:01:29.276Z,100802.72
2024-04-22T15:03:56.599Z,100791.22
2024-04-22T15:06:25.441Z,100787.59
2024-04-22T15:08:52.800Z,100792.78
2024-04-22T15:11:21.690Z,100793.53
2024-04-22T15:13:49.170Z,100792.69
2024-04-22T15:16:17.368Z,100783.81
2024-04-22T15:18:44.503Z,100779.66
2024-04-22T15:21:13.715Z,100770.03
2024-04-22T15:23:46.961Z,100776.06
2024-04-22T15:26:14.621Z,100774.13
2024-04-22T15:28:42.112Z,100759.34
2024-04-22T15:31:09.308Z,100779.31
2024-04-22T15:33:36.604Z,100775.78
2024-04-22T15:36:04.552Z,100772.94
2024-04-22T15:38:32.316Z,100774.63
2024-04-22T15:40:59.783Z,100755.94
2024-04-22T15:43:27.103Z,100764.72
2024-04-22T15:45:54.312Z,100754.13
2024-04-22T15:48:21.658Z,100759.28
2024-04-22T15:50:52.835Z,100759.28
2024-04-22T15:53:20.243Z,100759.38
2024-04-22T15:55:58.624Z,100763.66
2024-04-22T15:58:26.930Z,100754.09
2024-04-22T16:00:55.797Z,100738.28
2024-04-22T16:03:22.992Z,100755.22
2024-04-22T16:05:50.165Z,100754.59
2024-04-22T16:08:17.372Z,100751.13
2024-04-22T16:10:47.062Z,100753.91
2024-04-22T16:13:14.423Z,100744.22
2024-04-22T16:15:41.689Z,100740.06
2024-04-22T16:18:09.178Z,100739.13
2024-04-22T16:20:36.478Z,100734.72
2024-04-22T16:23:05.816Z,100728.66
2024-04-22T16:25:33.693Z,100721.66
2024-04-22T16:28:01.002Z,100727.84
2024-04-22T16:30:28.218Z,100738.66
2024-04-22T16:32:55.509Z,100738.56
2024-04-22T16:35:22.883Z,100722.78
2024-04-22T16:37:50.214Z,100738.66
2024-04-22T16:40:17.814Z,100727.97
2024-04-22T16:42:44.983Z,100724.63
2024-04-22T16:45:12.184Z,100747.00
2024-04-22T16:47:39.575Z,100736.53
2024-04-22T16:50:07.216Z,100742.13
2024-04-22T16:52:34.507Z,100732.06
2024-04-22T16:55:01.768Z,100749.03
2024-04-22T16:57:28.961Z,100749.31
2024-04-22T16:59:56.753Z,100750.66
2024-04-22T17:02:24.487Z,100748.94
2024-04-22T17:04:51.974Z,100756.22
2024-04-22T17:07:19.253Z,100751.06
2024-04-22T17:09:46.477Z,100752.03
2024-04-22T17:12:13.709Z,100750.41
2024-04-22T17:14:40.907Z,100756.81
2024-04-22T17:17:08.592Z,100755.19
2024-04-22T17:19:36.227Z,100753.47
2024-04-22T17:22:03.568Z,100766.97
2024-04-22T17:24:30.724Z,100760.91
2024-04-22T17:27:01.006Z,100760.13
2024-04-22T17:29:28.252Z,100765.66
2024-04-22T17:31:55.672Z,100755.19
2024-04-22T17:34:24.590Z,100765.00
2024-04-22T17:36:53.890Z,100759.75
2024-04-22T17:39:21.179Z,100760.75
2024-04-22T17:41:48.414Z,100767.13
2024-04-22T17:44:15.648Z,100759.28
2024-04-22T17:46:42.877Z,100758.63
2024-04-22T17:49:11.776Z,100757.00
2024-04-22T17:51:40.082Z,100762.34
2024-04-22T17:54:07.291Z,100766.84
2024-04-22T17:56:34.603Z,100773.22
2024-04-22T17:59:01.859Z,100760.03
2024-04-22T18:01:29.080Z,100769.06
2024-04-22T18:03:56.315Z,100760.41
2024-04-22T18:06:23.543Z,100763.16
2024-04-22T18:08:50.774Z,100765.81
2024-04-22T18:11:18.128Z,100774.75
2024-04-22T18:13:45.448Z,100774.84
2024-04-22T18:16:12.738Z,100766.97
2024-04-22T18:18:39.953Z,100760.97
2024-04-22T18:21:07.212Z,100762.88
2024-04-22T18:23:34.488Z,100777.94
2024-04-22T18:26:09.481Z,100768.19
2024-04-22T18:28:41.413Z,100770.91
2024-04-22T18:31:08.708Z,100766.63
2024-04-22T18:33:36.306Z,100764.09
2024-04-22T18:36:03.917Z,100761.66
2024-04-22T18:38:31.266Z,100764.28
2024-04-22T18:40:58.512Z,100766.19
2024-04-22T18:43:25.730Z,100768.84
2024-04-22T18:45:52.939Z,100757.41
2024-04-22T18:48:20.349Z,100754.03
2024-04-22T18:50:51.162Z,100762.88
2024-04-22T18:53:20.172Z,100755.84
2024-04-22T18:55:47.516Z,100763.03
2024-04-22T18:58:14.753Z,100769.22
2024-04-22T19:00:42.058Z,100772.88
2024-04-22T19:03:09.470Z,100777.34
2024-04-22T19:05:37.071Z,100779.22
2024-04-22T19:08:04.672Z,100788.19
2024-04-22T19:10:32.130Z,100788.41
2024-04-22T19:12:59.643Z,100791.19
2024-04-22T19:15:26.842Z,100796.59
2024-04-22T19:17:54.181Z,100794.94
2024-04-22T19:20:24.440Z,100795.09
2024-04-22T19:22:51.747Z,100796.09
2024-04-22T19:25:19.894Z,100800.56
2024-04-22T19:27:47.226Z,100796.47
2024-04-22T19:30:14.452Z,100803.53
2024-04-22T19:32:41.949Z,100795.81
2024-04-22T19:35:09.366Z,100791.50
2024-04-22T19:37:37.703Z,100803.75
2024-04-22T19:40:05.934Z,100806.47
2024-04-22T19:42:36.005Z,100796.06
2024-04-22T19:45:04.223Z,100807.56
2024-04-22T19:47:32.108Z,100799.66
2024-04-22T19:49:59.735Z,100795.50
2024-04-22T19:52:27.631Z,100803.44
2024-04-22T19:54:57.120Z,100790.38
2024-04-22T19:57:24.687Z,100798.34
2024-04-22T19:59:51.976Z,100802.88
2024-04-22T20:02:21.562Z,100798.53
2024-04-22T20:04:48.900Z,100803.16
2024-04-22T20:07:16.158Z,100790.13
2024-04-22T20:09:46.687Z,100806.13
2024-04-22T20:12:13.904Z,100814.22
2024-04-22T20:14:41.221Z,100802.81
2024-04-22T20:17:13.340Z,100794.28
2024-04-22T20:19:40.700Z,100803.22
2024-04-22T20:22:08.055Z,100812.06
2024-04-22T20:24:35.598Z,100811.31
2024-04-22T20:27:03.044Z,100800.91
2024-04-22T20:29:30.254Z,100803.56
2024-04-22T20:31:57.635Z,100804.59
2024-04-22T20:34:25.019Z,100810.88
2024-04-22T20:36:53.313Z,100815.34
2024-04-22T20:39:22.757Z,100800.44
2024-04-22T20:41:50.247Z,100806.69
2024-04-22T20:44:18.172Z,100811.16
2024-04-22T20:46:45.442Z,100811.22
2024-04-22T20:49:12.673Z,100806.94
2024-04-22T20:51:39.978Z,100799.94
2024-04-22T20:54:07.274Z,100799.22
2024-04-22T20:56:34.522Z,100813.31
2024-04-22T20:59:01.843Z,100809.16
2024-04-22T21:01:29.214Z,100815.47
2024-04-22T21:03:56.492Z,100811.28
2024-04-22T21:06:23.715Z,100815.81
2024-04-22T21:08:51.139Z,100816.00
2024-04-22T21:11:18.994Z,100813.44
2024-04-22T21:14:01.775Z,100810.00
2024-04-22T21:16:29.984Z,100822.53
2024-04-22T21:19:07.126Z,100813.81
2024-04-22T21:21:38.826Z,100813.38
2024-04-22T21:24:06.250Z,100813.28
2024-04-22T21:26:33.707Z,100810.47
2024-04-22T21:29:00.930Z,100806.94
2024-04-22T21:31:28.165Z,100809.53
2024-04-22T21:34:07.168Z,100805.16
2024-04-22T21:36:36.792Z,100809.69
2024-04-22T21:39:04.387Z,100806.28
2024-04-22T21:41:31.623Z,100809.81
2024-04-22T21:43:59.010Z,100808.16
2024-04-22T21:46:26.328Z,100803.91
2024-04-22T21:48:53.711Z,100810.94
2024-04-22T21:51:20.937Z,100809.13
2024-04-22T21:53:49.173Z,100810.94
2024-04-22T21:56:19.616Z,100818.81
2024-04-22T21:59:43.990Z,100810.16
2024-04-22T22:03:07.174Z,100816.41
2024-04-22T22:06:30.875Z,100806.69
2024-04-22T22:08:57.979Z,100819.94
2024-04-22T22:11:25.358Z,100813.72
2024-04-22T22:13:52.745Z,100811.06
2024-04-22T22:16:20.278Z,100818.16
2024-04-22T22:18:47.579Z,100815.59
2024-04-22T22:21:14.899Z,100820.88
2024-04-22T22:23:42.144Z,100818.28
2024-04-22T22:26:09.391Z,100819.22
2024-04-22T22:28:55.811Z,100823.78
2024-04-22T22:31:23.117Z,100822.03
2024-04-22T22:33:55.526Z,100823.81
2024-04-22T22:36:22.781Z,100823.88
2024-04-22T22:38:50.026Z,100823.91
2024-04-22T22:41:18.745Z,100822.16
2024-04-22T22:43:46.414Z,100808.06
2024-04-22T22:46:13.553Z,100820.38
2024-04-22T22:48:40.714Z,100809.03
2024-04-22T22:51:07.993Z,100818.63
2024-04-22T22:53:35.179Z,100822.22
2024-04-22T22:56:03.538Z,100813.38
2024-04-22T22:58:30.748Z,100802.00
2024-04-22T23:00:57.996Z,100801.97
2024-04-22T23:03:25.180Z,100804.63
2024-04-22T23:05:52.331Z,100790.53
2024-04-22T23:08:19.435Z,100799.34
2024-04-22T23:10:46.714Z,100792.28
2024-04-22T23:13:14.017Z,100789.66
2024-04-22T23:15:41.168Z,100792.41
2024-04-22T23:18:08.507Z,100788.94
2024-04-22T23:20:35.649Z,100781.13
2024-04-22T23:23:02.908Z,100777.66
2024-04-22T23:25:30.160Z,100783.94
2024-04-22T23:27:57.326Z,100783.09
2024-04-22T23:30:24.637Z,100766.53
2024-04-22T23:32:51.869Z,100777.03
2024-04-22T23:35:19.102Z,100774.50
2024-04-22T23:37:49.176Z,100763.94
2024-04-22T23:40:16.340Z,100772.75
2024-04-22T23:42:43.487Z,100768.38
2024-04-22T23:45:10.663Z,100761.38
2024-04-22T23:47:37.905Z,100767.63
2024-04-22T23:50:05.633Z,100765.00
2024-04-22T23:52:32.851Z,100772.03
2024-04-22T23:55:00.048Z,100762.34
2024-04-22T23:57:27.221Z,100751.81
2024-04-22T23:59:54.715Z,100759.75
